sensor_id;sensor_type;location;lat;lon;timestamp;temperature;humidity
3330;DHT22;1677;49.576;10.990;2023-07-20T00:02:16;19.20;99.90
3330;DHT22;1677;49.576;10.990;2023-07-20T00:04:42;19.30;99.90
3330;DHT22;1677;49.576;10.990;2023-07-20T00:07:08;19.20;99.90
3330;DHT22;1677;49.576;10.990;2023-07-20T00:09:33;19.20;99.90
3330;DHT22;1677;49.576;10.990;2023-07-20T00:11:59;19.30;99.90
3330;DHT22;1677;49.576;10.990;2023-07-20T00:14:25;19.50;99.90
3330;DHT22;1677;49.576;10.990;2023-07-20T00:16:51;19.40;99.90
3330;DHT22;1677;49.576;10.990;2023-07-20T00:19:24;19.20;99.90
3330;DHT22;1677;49.576;10.990;2023-07-20T00:21:49;19.20;99.90
3330;DHT22;1677;49.576;10.990;2023-07-20T00:24:15;19.10;99.90
3330;DHT22;1677;49.576;10.990;2023-07-20T00:26:40;19.10;99.90
3330;DHT22;1677;49.576;10.990;2023-07-20T00:29:06;19.20;99.90
3330;DHT22;1677;49.576;10.990;2023-07-20T00:31:31;19.10;99.90
3330;DHT22;1677;49.576;10.990;2023-07-20T00:33:57;19.10;99.90
3330;DHT22;1677;49.576;10.990;2023-07-20T00:36:22;19.00;99.90
3330;DHT22;1677;49.576;10.990;2023-07-20T00:38:48;19.00;99.90
3330;DHT22;1677;49.576;10.990;2023-07-20T00:41:13;19.00;99.90
3330;DHT22;1677;49.576;10.990;2023-07-20T00:43:39;19.00;99.90
3330;DHT22;1677;49.576;10.990;2023-07-20T00:46:05;19.00;99.90
3330;DHT22;1677;49.576;10.990;2023-07-20T00:48:31;19.00;99.90
3330;DHT22;1677;49.576;10.990;2023-07-20T00:51:00;19.00;99.90
3330;DHT22;1677;49.576;10.990;2023-07-20T00:53:26;19.10;99.90
3330;DHT22;1677;49.576;10.990;2023-07-20T00:55:52;19.20;99.90
3330;DHT22;1677;49.576;10.990;2023-07-20T00:58:18;19.20;99.90
3330;DHT22;1677;49.576;10.990;2023-07-20T01:00:44;19.10;99.90
3330;DHT22;1677;49.576;10.990;2023-07-20T01:03:09;19.20;99.90
3330;DHT22;1677;49.576;10.990;2023-07-20T01:05:48;19.10;99.90
3330;DHT22;1677;49.576;10.990;2023-07-20T01:08:23;19.00;99.90
3330;DHT22;1677;49.576;10.990;2023-07-20T01:11:05;18.90;99.90
3330;DHT22;1677;49.576;10.990;2023-07-20T01:13:32;18.80;99.90
3330;DHT22;1677;49.576;10.990;2023-07-20T01:16:01;18.80;99.90
3330;DHT22;1677;49.576;10.990;2023-07-20T01:18:27;18.80;99.90
3330;DHT22;1677;49.576;10.990;2023-07-20T01:20:53;18.80;99.90
3330;DHT22;1677;49.576;10.990;2023-07-20T01:23:41;18.70;99.90
3330;DHT22;1677;49.576;10.990;2023-07-20T01:26:32;18.70;99.90
3330;DHT22;1677;49.576;10.990;2023-07-20T01:29:09;18.70;99.90
3330;DHT22;1677;49.576;10.990;2023-07-20T01:31:37;18.70;99.90
3330;DHT22;1677;49.576;10.990;2023-07-20T01:34:03;18.70;99.90
3330;DHT22;1677;49.576;10.990;2023-07-20T01:36:30;18.70;99.90
3330;DHT22;1677;49.576;10.990;2023-07-20T01:38:58;18.70;99.90
3330;DHT22;1677;49.576;10.990;2023-07-20T01:41:24;18.80;99.90
3330;DHT22;1677;49.576;10.990;2023-07-20T01:43:49;18.70;99.90
3330;DHT22;1677;49.576;10.990;2023-07-20T01:46:15;18.70;99.90
3330;DHT22;1677;49.576;10.990;2023-07-20T01:48:40;18.80;99.90
3330;DHT22;1677;49.576;10.990;2023-07-20T01:51:06;18.70;99.90
3330;DHT22;1677;49.576;10.990;2023-07-20T01:53:31;18.60;99.90
3330;DHT22;1677;49.576;10.990;2023-07-20T01:55:57;18.60;99.90
3330;DHT22;1677;49.576;10.990;2023-07-20T01:58:22;18.60;99.90
3330;DHT22;1677;49.576;10.990;2023-07-20T02:00:48;18.70;99.90
3330;DHT22;1677;49.576;10.990;2023-07-20T02:03:14;18.80;99.90
3330;DHT22;1677;49.576;10.990;2023-07-20T02:05:41;18.80;99.90
3330;DHT22;1677;49.576;10.990;2023-07-20T02:08:07;18.90;99.90
3330;DHT22;1677;49.576;10.990;2023-07-20T02:10:33;18.90;99.90
3330;DHT22;1677;49.576;10.990;2023-07-20T02:12:58;18.90;99.90
3330;DHT22;1677;49.576;10.990;2023-07-20T02:15:23;18.90;99.90
3330;DHT22;1677;49.576;10.990;2023-07-20T02:17:49;19.00;99.90
3330;DHT22;1677;49.576;10.990;2023-07-20T02:20:15;19.00;99.90
3330;DHT22;1677;49.576;10.990;2023-07-20T02:22:40;19.00;99.90
3330;DHT22;1677;49.576;10.990;2023-07-20T02:25:06;18.90;99.90
3330;DHT22;1677;49.576;10.990;2023-07-20T02:27:33;18.90;99.90
3330;DHT22;1677;49.576;10.990;2023-07-20T02:29:58;18.90;99.90
3330;DHT22;1677;49.576;10.990;2023-07-20T02:32:24;18.90;99.90
3330;DHT22;1677;49.576;10.990;2023-07-20T02:34:49;18.80;99.90
3330;DHT22;1677;49.576;10.990;2023-07-20T02:37:16;18.80;99.90
3330;DHT22;1677;49.576;10.990;2023-07-20T02:39:41;18.90;99.90
3330;DHT22;1677;49.576;10.990;2023-07-20T02:42:07;18.90;99.90
3330;DHT22;1677;49.576;10.990;2023-07-20T02:44:32;18.90;99.90
3330;DHT22;1677;49.576;10.990;2023-07-20T02:46:57;18.90;99.90
3330;DHT22;1677;49.576;10.990;2023-07-20T02:49:23;18.70;99.90
3330;DHT22;1677;49.576;10.990;2023-07-20T02:51:48;18.50;99.90
3330;DHT22;1677;49.576;10.990;2023-07-20T02:54:14;18.60;99.90
3330;DHT22;1677;49.576;10.990;2023-07-20T02:56:40;18.50;99.90
3330;DHT22;1677;49.576;10.990;2023-07-20T02:59:05;18.30;99.90
3330;DHT22;1677;49.576;10.990;2023-07-20T03:01:31;18.20;99.90
3330;DHT22;1677;49.576;10.990;2023-07-20T03:03:56;18.10;99.90
3330;DHT22;1677;49.576;10.990;2023-07-20T03:06:22;18.20;99.90
3330;DHT22;1677;49.576;10.990;2023-07-20T03:08:48;18.10;99.90
3330;DHT22;1677;49.576;10.990;2023-07-20T03:11:17;18.20;99.90
3330;DHT22;1677;49.576;10.990;2023-07-20T03:13:43;18.20;99.90
3330;DHT22;1677;49.576;10.990;2023-07-20T03:16:09;18.10;99.90
3330;DHT22;1677;49.576;10.990;2023-07-20T03:18:37;18.00;99.90
3330;DHT22;1677;49.576;10.990;2023-07-20T03:21:02;18.10;99.90
3330;DHT22;1677;49.576;10.990;2023-07-20T03:23:28;18.00;99.90
3330;DHT22;1677;49.576;10.990;2023-07-20T03:25:53;18.00;99.90
3330;DHT22;1677;49.576;10.990;2023-07-20T03:28:20;17.90;99.90
3330;DHT22;1677;49.576;10.990;2023-07-20T03:30:45;17.80;99.90
3330;DHT22;1677;49.576;10.990;2023-07-20T03:33:11;17.80;99.90
3330;DHT22;1677;49.576;10.990;2023-07-20T03:35:37;17.80;99.90
3330;DHT22;1677;49.576;10.990;2023-07-20T03:38:02;17.80;99.90
3330;DHT22;1677;49.576;10.990;2023-07-20T03:40:29;17.80;99.90
3330;DHT22;1677;49.576;10.990;2023-07-20T03:42:55;17.90;99.90
3330;DHT22;1677;49.576;10.990;2023-07-20T03:45:20;17.80;99.90
3330;DHT22;1677;49.576;10.990;2023-07-20T03:47:49;17.90;99.90
3330;DHT22;1677;49.576;10.990;2023-07-20T03:50:14;17.90;99.90
3330;DHT22;1677;49.576;10.990;2023-07-20T03:52:40;17.90;99.90
3330;DHT22;1677;49.576;10.990;2023-07-20T03:55:05;17.90;99.90
3330;DHT22;1677;49.576;10.990;2023-07-20T03:57:31;18.10;99.90
3330;DHT22;1677;49.576;10.990;2023-07-20T03:59:57;18.10;99.90
3330;DHT22;1677;49.576;10.990;2023-07-20T04:02:23;18.20;99.90
3330;DHT22;1677;49.576;10.990;2023-07-20T04:04:49;18.10;99.90
3330;DHT22;1677;49.576;10.990;2023-07-20T04:07:14;18.10;99.90
3330;DHT22;1677;49.576;10.990;2023-07-20T04:09:40;18.10;99.90
3330;DHT22;1677;49.576;10.990;2023-07-20T04:12:06;18.10;99.90
3330;DHT22;1677;49.576;10.990;2023-07-20T04:14:31;18.10;99.90
3330;DHT22;1677;49.576;10.990;2023-07-20T04:16:57;18.10;99.90
3330;DHT22;1677;49.576;10.990;2023-07-20T04:19:22;18.10;99.90
3330;DHT22;1677;49.576;10.990;2023-07-20T04:21:48;18.20;99.90
3330;DHT22;1677;49.576;10.990;2023-07-20T04:24:13;18.10;99.90
3330;DHT22;1677;49.576;10.990;2023-07-20T04:26:38;18.20;99.90
3330;DHT22;1677;49.576;10.990;2023-07-20T04:29:04;18.20;99.90
3330;DHT22;1677;49.576;10.990;2023-07-20T04:31:29;18.40;99.90
3330;DHT22;1677;49.576;10.990;2023-07-20T04:33:58;18.50;99.90
3330;DHT22;1677;49.576;10.990;2023-07-20T04:36:23;18.40;99.90
3330;DHT22;1677;49.576;10.990;2023-07-20T04:38:49;18.40;99.90
3330;DHT22;1677;49.576;10.990;2023-07-20T04:41:14;18.30;99.90
3330;DHT22;1677;49.576;10.990;2023-07-20T04:43:43;18.40;99.90
3330;DHT22;1677;49.576;10.990;2023-07-20T04:46:10;18.30;99.90
3330;DHT22;1677;49.576;10.990;2023-07-20T04:48:35;18.40;99.90
3330;DHT22;1677;49.576;10.990;2023-07-20T04:51:01;18.50;99.90
3330;DHT22;1677;49.576;10.990;2023-07-20T04:53:26;18.60;99.90
3330;DHT22;1677;49.576;10.990;2023-07-20T04:55:52;18.60;99.90
3330;DHT22;1677;49.576;10.990;2023-07-20T04:58:20;18.60;99.90
3330;DHT22;1677;49.576;10.990;2023-07-20T05:00:46;18.70;99.90
3330;DHT22;1677;49.576;10.990;2023-07-20T05:03:11;18.90;99.90
3330;DHT22;1677;49.576;10.990;2023-07-20T05:05:37;18.90;99.90
3330;DHT22;1677;49.576;10.990;2023-07-20T05:08:03;18.90;99.90
3330;DHT22;1677;49.576;10.990;2023-07-20T05:10:29;19.10;99.90
3330;DHT22;1677;49.576;10.990;2023-07-20T05:12:54;19.20;99.90
3330;DHT22;1677;49.576;10.990;2023-07-20T05:15:20;19.40;99.90
3330;DHT22;1677;49.576;10.990;2023-07-20T05:17:45;19.50;99.90
3330;DHT22;1677;49.576;10.990;2023-07-20T05:20:12;19.60;99.90
3330;DHT22;1677;49.576;10.990;2023-07-20T05:22:38;19.60;99.90
3330;DHT22;1677;49.576;10.990;2023-07-20T05:25:06;19.50;99.90
3330;DHT22;1677;49.576;10.990;2023-07-20T05:27:31;19.50;99.90
3330;DHT22;1677;49.576;10.990;2023-07-20T05:29:57;19.40;99.90
3330;DHT22;1677;49.576;10.990;2023-07-20T05:32:22;19.50;99.90
3330;DHT22;1677;49.576;10.990;2023-07-20T05:34:51;19.50;99.90
3330;DHT22;1677;49.576;10.990;2023-07-20T05:37:16;19.60;99.90
3330;DHT22;1677;49.576;10.990;2023-07-20T05:39:41;19.60;99.90
3330;DHT22;1677;49.576;10.990;2023-07-20T05:42:07;19.60;99.90
3330;DHT22;1677;49.576;10.990;2023-07-20T05:44:33;19.80;99.90
3330;DHT22;1677;49.576;10.990;2023-07-20T05:46:58;20.00;99.90
3330;DHT22;1677;49.576;10.990;2023-07-20T05:49:24;20.20;99.90
3330;DHT22;1677;49.576;10.990;2023-07-20T05:51:49;20.30;99.90
3330;DHT22;1677;49.576;10.990;2023-07-20T05:54:15;20.40;99.90
3330;DHT22;1677;49.576;10.990;2023-07-20T05:56:40;20.40;99.90
3330;DHT22;1677;49.576;10.990;2023-07-20T05:59:06;20.50;99.90
3330;DHT22;1677;49.576;10.990;2023-07-20T06:01:31;20.50;99.90
3330;DHT22;1677;49.576;10.990;2023-07-20T06:03:56;20.50;99.90
3330;DHT22;1677;49.576;10.990;2023-07-20T06:06:22;20.60;99.90
3330;DHT22;1677;49.576;10.990;2023-07-20T06:08:47;20.70;99.90
3330;DHT22;1677;49.576;10.990;2023-07-20T06:11:13;20.70;99.90
3330;DHT22;1677;49.576;10.990;2023-07-20T06:13:38;20.80;99.90
3330;DHT22;1677;49.576;10.990;2023-07-20T06:16:04;20.80;99.90
3330;DHT22;1677;49.576;10.990;2023-07-20T06:18:30;20.90;99.90
3330;DHT22;1677;49.576;10.990;2023-07-20T06:20:56;21.10;99.90
3330;DHT22;1677;49.576;10.990;2023-07-20T06:23:21;21.20;99.90
3330;DHT22;1677;49.576;10.990;2023-07-20T06:25:47;21.20;99.90
3330;DHT22;1677;49.576;10.990;2023-07-20T06:28:13;21.30;99.90
3330;DHT22;1677;49.576;10.990;2023-07-20T06:30:38;21.40;99.90
3330;DHT22;1677;49.576;10.990;2023-07-20T06:33:04;21.50;99.90
3330;DHT22;1677;49.576;10.990;2023-07-20T06:35:30;21.60;99.90
3330;DHT22;1677;49.576;10.990;2023-07-20T06:37:55;21.70;99.90
3330;DHT22;1677;49.576;10.990;2023-07-20T06:40:21;21.90;99.90
3330;DHT22;1677;49.576;10.990;2023-07-20T06:42:46;22.00;99.90
3330;DHT22;1677;49.576;10.990;2023-07-20T06:45:12;22.00;99.90
3330;DHT22;1677;49.576;10.990;2023-07-20T06:47:40;22.10;99.90
3330;DHT22;1677;49.576;10.990;2023-07-20T06:50:09;22.20;99.90
3330;DHT22;1677;49.576;10.990;2023-07-20T06:52:35;22.10;99.90
3330;DHT22;1677;49.576;10.990;2023-07-20T06:55:00;22.20;99.90
3330;DHT22;1677;49.576;10.990;2023-07-20T06:57:26;22.20;99.90
3330;DHT22;1677;49.576;10.990;2023-07-20T06:59:51;22.30;99.90
3330;DHT22;1677;49.576;10.990;2023-07-20T07:02:17;22.30;99.90
3330;DHT22;1677;49.576;10.990;2023-07-20T07:04:42;22.40;99.90
3330;DHT22;1677;49.576;10.990;2023-07-20T07:07:08;22.40;99.90
3330;DHT22;1677;49.576;10.990;2023-07-20T07:09:34;22.70;99.90
3330;DHT22;1677;49.576;10.990;2023-07-20T07:12:00;22.90;99.80
3330;DHT22;1677;49.576;10.990;2023-07-20T07:14:25;22.90;99.20
3330;DHT22;1677;49.576;10.990;2023-07-20T07:16:51;23.00;99.40
3330;DHT22;1677;49.576;10.990;2023-07-20T07:19:16;23.10;99.80
3330;DHT22;1677;49.576;10.990;2023-07-20T07:21:42;23.20;97.60
3330;DHT22;1677;49.576;10.990;2023-07-20T07:24:07;23.30;97.20
3330;DHT22;1677;49.576;10.990;2023-07-20T07:26:33;23.30;96.90
3330;DHT22;1677;49.576;10.990;2023-07-20T07:28:58;23.40;97.60
3330;DHT22;1677;49.576;10.990;2023-07-20T07:31:28;23.50;97.10
3330;DHT22;1677;49.576;10.990;2023-07-20T07:33:54;23.50;96.00
3330;DHT22;1677;49.576;10.990;2023-07-20T07:36:19;23.50;95.70
3330;DHT22;1677;49.576;10.990;2023-07-20T07:38:45;23.60;95.60
3330;DHT22;1677;49.576;10.990;2023-07-20T07:41:10;23.60;94.00
3330;DHT22;1677;49.576;10.990;2023-07-20T07:43:36;23.60;94.50
3330;DHT22;1677;49.576;10.990;2023-07-20T07:46:01;23.90;95.00
3330;DHT22;1677;49.576;10.990;2023-07-20T07:48:27;24.40;94.10
3330;DHT22;1677;49.576;10.990;2023-07-20T07:50:53;24.70;92.10
3330;DHT22;1677;49.576;10.990;2023-07-20T07:53:19;25.00;92.30
3330;DHT22;1677;49.576;10.990;2023-07-20T07:55:47;25.00;92.10
3330;DHT22;1677;49.576;10.990;2023-07-20T07:58:12;24.80;91.70
3330;DHT22;1677;49.576;10.990;2023-07-20T08:00:38;24.90;91.40
3330;DHT22;1677;49.576;10.990;2023-07-20T08:03:05;25.00;91.20
3330;DHT22;1677;49.576;10.990;2023-07-20T08:05:31;25.30;91.70
3330;DHT22;1677;49.576;10.990;2023-07-20T08:07:56;25.40;90.90
3330;DHT22;1677;49.576;10.990;2023-07-20T08:10:22;25.40;89.90
3330;DHT22;1677;49.576;10.990;2023-07-20T08:12:48;25.50;90.20
3330;DHT22;1677;49.576;10.990;2023-07-20T08:15:13;26.00;90.40
3330;DHT22;1677;49.576;10.990;2023-07-20T08:17:40;26.30;87.30
3330;DHT22;1677;49.576;10.990;2023-07-20T08:20:06;26.20;83.70
3330;DHT22;1677;49.576;10.990;2023-07-20T08:22:31;26.00;84.10
3330;DHT22;1677;49.576;10.990;2023-07-20T08:24:57;26.20;82.70
3330;DHT22;1677;49.576;10.990;2023-07-20T08:27:22;26.10;79.60
3330;DHT22;1677;49.576;10.990;2023-07-20T08:29:48;26.00;80.50
3330;DHT22;1677;49.576;10.990;2023-07-20T08:32:13;26.10;81.70
3330;DHT22;1677;49.576;10.990;2023-07-20T08:34:39;26.30;79.80
3330;DHT22;1677;49.576;10.990;2023-07-20T08:37:05;26.30;80.00
3330;DHT22;1677;49.576;10.990;2023-07-20T08:39:30;26.70;80.00
3330;DHT22;1677;49.576;10.990;2023-07-20T08:41:56;27.20;78.20
3330;DHT22;1677;49.576;10.990;2023-07-20T08:44:25;27.40;73.90
3330;DHT22;1677;49.576;10.990;2023-07-20T08:46:50;27.60;72.70
3330;DHT22;1677;49.576;10.990;2023-07-20T08:49:17;27.70;70.90
3330;DHT22;1677;49.576;10.990;2023-07-20T08:51:43;27.50;70.60
3330;DHT22;1677;49.576;10.990;2023-07-20T08:54:10;27.30;69.20
3330;DHT22;1677;49.576;10.990;2023-07-20T08:56:37;27.00;70.70
3330;DHT22;1677;49.576;10.990;2023-07-20T08:59:03;26.60;71.90
3330;DHT22;1677;49.576;10.990;2023-07-20T09:01:28;26.50;73.10
3330;DHT22;1677;49.576;10.990;2023-07-20T09:03:54;26.80;73.70
3330;DHT22;1677;49.576;10.990;2023-07-20T09:06:20;27.10;71.50
3330;DHT22;1677;49.576;10.990;2023-07-20T09:08:46;26.90;70.50
3330;DHT22;1677;49.576;10.990;2023-07-20T09:11:11;27.00;71.80
3330;DHT22;1677;49.576;10.990;2023-07-20T09:13:37;27.30;69.80
3330;DHT22;1677;49.576;10.990;2023-07-20T09:16:03;27.20;67.10
3330;DHT22;1677;49.576;10.990;2023-07-20T09:18:31;27.00;71.20
3330;DHT22;1677;49.576;10.990;2023-07-20T09:21:03;26.80;68.30
3330;DHT22;1677;49.576;10.990;2023-07-20T09:23:38;27.00;68.60
3330;DHT22;1677;49.576;10.990;2023-07-20T09:26:14;27.00;66.60
3330;DHT22;1677;49.576;10.990;2023-07-20T09:28:44;27.10;67.90
3330;DHT22;1677;49.576;10.990;2023-07-20T09:31:16;27.70;64.00
3330;DHT22;1677;49.576;10.990;2023-07-20T09:33:42;28.40;62.60
3330;DHT22;1677;49.576;10.990;2023-07-20T09:36:09;28.30;60.00
3330;DHT22;1677;49.576;10.990;2023-07-20T09:38:36;28.30;60.80
3330;DHT22;1677;49.576;10.990;2023-07-20T09:41:02;28.10;61.30
3330;DHT22;1677;49.576;10.990;2023-07-20T09:43:31;27.70;60.40
3330;DHT22;1677;49.576;10.990;2023-07-20T09:45:58;27.60;61.80
3330;DHT22;1677;49.576;10.990;2023-07-20T09:48:23;27.30;59.20
3330;DHT22;1677;49.576;10.990;2023-07-20T09:50:49;27.00;63.40
3330;DHT22;1677;49.576;10.990;2023-07-20T09:53:18;26.90;63.70
3330;DHT22;1677;49.576;10.990;2023-07-20T09:55:44;27.00;61.30
3330;DHT22;1677;49.576;10.990;2023-07-20T09:58:10;26.90;61.60
3330;DHT22;1677;49.576;10.990;2023-07-20T10:00:36;26.60;61.30
3330;DHT22;1677;49.576;10.990;2023-07-20T10:03:03;26.60;60.10
3330;DHT22;1677;49.576;10.990;2023-07-20T10:05:31;26.90;60.60
3330;DHT22;1677;49.576;10.990;2023-07-20T10:07:59;27.40;58.20
3330;DHT22;1677;49.576;10.990;2023-07-20T10:10:25;28.10;57.40
3330;DHT22;1677;49.576;10.990;2023-07-20T10:12:51;28.60;54.80
3330;DHT22;1677;49.576;10.990;2023-07-20T10:15:28;28.60;55.20
3330;DHT22;1677;49.576;10.990;2023-07-20T10:17:57;28.90;52.70
3330;DHT22;1677;49.576;10.990;2023-07-20T10:20:23;29.10;51.80
3330;DHT22;1677;49.576;10.990;2023-07-20T10:22:49;29.00;51.60
3330;DHT22;1677;49.576;10.990;2023-07-20T10:25:18;29.80;48.00
3330;DHT22;1677;49.576;10.990;2023-07-20T10:27:45;31.60;45.60
3330;DHT22;1677;49.576;10.990;2023-07-20T10:30:11;32.70;42.30
3330;DHT22;1677;49.576;10.990;2023-07-20T10:32:36;33.70;41.60
3330;DHT22;1677;49.576;10.990;2023-07-20T10:35:11;34.70;39.40
3330;DHT22;1677;49.576;10.990;2023-07-20T10:38:10;35.00;35.90
3330;DHT22;1677;49.576;10.990;2023-07-20T10:40:37;35.10;36.20
3330;DHT22;1677;49.576;10.990;2023-07-20T10:43:04;35.50;34.80
3330;DHT22;1677;49.576;10.990;2023-07-20T10:45:48;35.70;33.10
3330;DHT22;1677;49.576;10.990;2023-07-20T10:50:41;36.90;31.50
3330;DHT22;1677;49.576;10.990;2023-07-20T10:53:17;37.60;29.10
3330;DHT22;1677;49.576;10.990;2023-07-20T10:55:43;37.30;28.90
3330;DHT22;1677;49.576;10.990;2023-07-20T10:58:12;37.30;29.50
3330;DHT22;1677;49.576;10.990;2023-07-20T11:00:56;36.50;28.80
3330;DHT22;1677;49.576;10.990;2023-07-20T11:03:38;35.40;30.10
3330;DHT22;1677;49.576;10.990;2023-07-20T11:08:49;33.00;33.60
3330;DHT22;1677;49.576;10.990;2023-07-20T11:13:55;32.40;35.20
3330;DHT22;1677;49.576;10.990;2023-07-20T11:16:33;31.80;36.20
3330;DHT22;1677;49.576;10.990;2023-07-20T11:18:58;30.80;38.00
3330;DHT22;1677;49.576;10.990;2023-07-20T11:21:24;30.40;39.00
3330;DHT22;1677;49.576;10.990;2023-07-20T11:23:50;29.80;39.20
3330;DHT22;1677;49.576;10.990;2023-07-20T11:26:17;29.30;40.40
3330;DHT22;1677;49.576;10.990;2023-07-20T11:28:50;30.40;41.00
3330;DHT22;1677;49.576;10.990;2023-07-20T11:31:20;31.60;38.30
3330;DHT22;1677;49.576;10.990;2023-07-20T11:33:46;33.10;35.80
3330;DHT22;1677;49.576;10.990;2023-07-20T11:36:11;34.40;34.40
3330;DHT22;1677;49.576;10.990;2023-07-20T11:38:38;35.40;32.20
3330;DHT22;1677;49.576;10.990;2023-07-20T11:41:04;35.00;30.50
3330;DHT22;1677;49.576;10.990;2023-07-20T11:43:30;35.40;31.40
3330;DHT22;1677;49.576;10.990;2023-07-20T11:45:56;34.70;30.70
3330;DHT22;1677;49.576;10.990;2023-07-20T11:48:21;34.50;32.40
3330;DHT22;1677;49.576;10.990;2023-07-20T11:50:47;33.50;31.90
3330;DHT22;1677;49.576;10.990;2023-07-20T11:53:13;33.00;32.30
3330;DHT22;1677;49.576;10.990;2023-07-20T11:55:42;32.50;32.00
3330;DHT22;1677;49.576;10.990;2023-07-20T11:58:08;32.40;32.70
3330;DHT22;1677;49.576;10.990;2023-07-20T12:00:34;32.40;31.60
3330;DHT22;1677;49.576;10.990;2023-07-20T12:02:59;32.20;31.90
3330;DHT22;1677;49.576;10.990;2023-07-20T12:05:25;31.90;33.00
3330;DHT22;1677;49.576;10.990;2023-07-20T12:07:51;31.90;33.50
3330;DHT22;1677;49.576;10.990;2023-07-20T12:10:23;31.80;33.10
3330;DHT22;1677;49.576;10.990;2023-07-20T12:12:49;31.90;32.50
3330;DHT22;1677;49.576;10.990;2023-07-20T12:17:48;31.70;33.10
3330;DHT22;1677;49.576;10.990;2023-07-20T12:20:24;31.70;34.60
3330;DHT22;1677;49.576;10.990;2023-07-20T12:22:49;31.60;35.30
3330;DHT22;1677;49.576;10.990;2023-07-20T12:25:15;31.60;35.40
3330;DHT22;1677;49.576;10.990;2023-07-20T12:27:40;31.70;35.70
3330;DHT22;1677;49.576;10.990;2023-07-20T12:30:07;31.60;33.50
3330;DHT22;1677;49.576;10.990;2023-07-20T12:32:33;31.30;33.50
3330;DHT22;1677;49.576;10.990;2023-07-20T12:34:58;31.40;34.60
3330;DHT22;1677;49.576;10.990;2023-07-20T12:37:25;31.60;33.20
3330;DHT22;1677;49.576;10.990;2023-07-20T12:39:51;31.40;33.70
3330;DHT22;1677;49.576;10.990;2023-07-20T12:42:17;31.10;34.40
3330;DHT22;1677;49.576;10.990;2023-07-20T12:44:42;31.20;34.60
3330;DHT22;1677;49.576;10.990;2023-07-20T12:47:08;31.30;34.80
3330;DHT22;1677;49.576;10.990;2023-07-20T12:49:33;31.40;34.90
3330;DHT22;1677;49.576;10.990;2023-07-20T12:51:59;31.30;34.60
3330;DHT22;1677;49.576;10.990;2023-07-20T12:54:24;30.80;35.30
3330;DHT22;1677;49.576;10.990;2023-07-20T12:56:50;30.60;35.40
3330;DHT22;1677;49.576;10.990;2023-07-20T12:59:15;30.60;35.00
3330;DHT22;1677;49.576;10.990;2023-07-20T13:01:40;30.40;35.50
3330;DHT22;1677;49.576;10.990;2023-07-20T13:04:07;29.60;36.70
3330;DHT22;1677;49.576;10.990;2023-07-20T13:06:35;29.40;37.10
3330;DHT22;1677;49.576;10.990;2023-07-20T13:09:01;29.50;35.30
3330;DHT22;1677;49.576;10.990;2023-07-20T13:11:26;29.80;36.10
3330;DHT22;1677;49.576;10.990;2023-07-20T13:13:52;30.20;34.80
3330;DHT22;1677;49.576;10.990;2023-07-20T13:16:17;30.30;34.80
3330;DHT22;1677;49.576;10.990;2023-07-20T13:18:43;30.60;35.10
3330;DHT22;1677;49.576;10.990;2023-07-20T13:21:08;30.90;35.40
3330;DHT22;1677;49.576;10.990;2023-07-20T13:23:36;31.20;34.20
3330;DHT22;1677;49.576;10.990;2023-07-20T13:26:02;31.30;33.40
3330;DHT22;1677;49.576;10.990;2023-07-20T13:28:28;31.30;32.90
3330;DHT22;1677;49.576;10.990;2023-07-20T13:30:53;31.10;33.10
3330;DHT22;1677;49.576;10.990;2023-07-20T13:33:19;31.10;32.70
3330;DHT22;1677;49.576;10.990;2023-07-20T13:35:44;30.80;33.30
3330;DHT22;1677;49.576;10.990;2023-07-20T13:38:10;30.10;33.70
3330;DHT22;1677;49.576;10.990;2023-07-20T13:40:35;29.70;35.70
3330;DHT22;1677;49.576;10.990;2023-07-20T13:43:02;29.80;37.00
3330;DHT22;1677;49.576;10.990;2023-07-20T13:45:27;29.80;36.40
3330;DHT22;1677;49.576;10.990;2023-07-20T13:47:53;29.90;36.40
3330;DHT22;1677;49.576;10.990;2023-07-20T13:50:18;30.10;36.20
3330;DHT22;1677;49.576;10.990;2023-07-20T13:52:44;30.50;35.30
3330;DHT22;1677;49.576;10.990;2023-07-20T13:55:09;30.60;35.60
3330;DHT22;1677;49.576;10.990;2023-07-20T13:57:35;30.90;33.40
3330;DHT22;1677;49.576;10.990;2023-07-20T14:00:00;30.90;34.50
3330;DHT22;1677;49.576;10.990;2023-07-20T14:02:27;30.90;33.30
3330;DHT22;1677;49.576;10.990;2023-07-20T14:04:52;30.90;34.20
3330;DHT22;1677;49.576;10.990;2023-07-20T14:07:21;30.60;34.70
3330;DHT22;1677;49.576;10.990;2023-07-20T14:09:46;30.50;34.70
3330;DHT22;1677;49.576;10.990;2023-07-20T14:12:12;30.40;34.20
3330;DHT22;1677;49.576;10.990;2023-07-20T14:14:42;30.10;34.20
3330;DHT22;1677;49.576;10.990;2023-07-20T14:17:07;29.70;34.10
3330;DHT22;1677;49.576;10.990;2023-07-20T14:19:33;29.30;35.70
3330;DHT22;1677;49.576;10.990;2023-07-20T14:21:58;29.00;36.90
3330;DHT22;1677;49.576;10.990;2023-07-20T14:24:25;29.10;36.30
3330;DHT22;1677;49.576;10.990;2023-07-20T14:26:50;28.90;35.70
3330;DHT22;1677;49.576;10.990;2023-07-20T14:29:16;28.90;37.10
3330;DHT22;1677;49.576;10.990;2023-07-20T14:31:43;29.00;36.80
3330;DHT22;1677;49.576;10.990;2023-07-20T14:34:09;29.10;37.10
3330;DHT22;1677;49.576;10.990;2023-07-20T14:36:34;29.20;36.50
3330;DHT22;1677;49.576;10.990;2023-07-20T14:38:59;29.40;37.50
3330;DHT22;1677;49.576;10.990;2023-07-20T14:41:25;29.10;36.70
3330;DHT22;1677;49.576;10.990;2023-07-20T14:43:51;29.10;35.80
3330;DHT22;1677;49.576;10.990;2023-07-20T14:46:19;29.10;36.40
3330;DHT22;1677;49.576;10.990;2023-07-20T14:48:44;29.00;35.70
3330;DHT22;1677;49.576;10.990;2023-07-20T14:51:10;28.90;35.70
3330;DHT22;1677;49.576;10.990;2023-07-20T14:53:35;28.80;37.00
3330;DHT22;1677;49.576;10.990;2023-07-20T14:56:01;28.90;36.70
3330;DHT22;1677;49.576;10.990;2023-07-20T14:58:27;28.60;36.60
3330;DHT22;1677;49.576;10.990;2023-07-20T15:00:52;28.60;36.30
3330;DHT22;1677;49.576;10.990;2023-07-20T15:03:18;28.30;36.40
3330;DHT22;1677;49.576;10.990;2023-07-20T15:05:43;28.10;36.80
3330;DHT22;1677;49.576;10.990;2023-07-20T15:08:09;28.10;37.60
3330;DHT22;1677;49.576;10.990;2023-07-20T15:10:34;28.30;36.90
3330;DHT22;1677;49.576;10.990;2023-07-20T15:13:00;28.40;36.10
3330;DHT22;1677;49.576;10.990;2023-07-20T15:15:25;28.30;37.20
3330;DHT22;1677;49.576;10.990;2023-07-20T15:17:51;28.50;36.20
3330;DHT22;1677;49.576;10.990;2023-07-20T15:20:16;28.60;35.10
3330;DHT22;1677;49.576;10.990;2023-07-20T15:22:42;28.60;35.10
3330;DHT22;1677;49.576;10.990;2023-07-20T15:25:08;28.70;34.80
3330;DHT22;1677;49.576;10.990;2023-07-20T15:27:36;28.60;36.00
3330;DHT22;1677;49.576;10.990;2023-07-20T15:30:01;28.60;38.10
3330;DHT22;1677;49.576;10.990;2023-07-20T15:32:27;28.30;37.90
3330;DHT22;1677;49.576;10.990;2023-07-20T15:34:52;28.20;38.70
3330;DHT22;1677;49.576;10.990;2023-07-20T15:37:18;28.20;39.20
3330;DHT22;1677;49.576;10.990;2023-07-20T15:39:43;27.80;39.20
3330;DHT22;1677;49.576;10.990;2023-07-20T15:42:09;27.40;39.10
3330;DHT22;1677;49.576;10.990;2023-07-20T15:44:34;27.10;38.20
3330;DHT22;1677;49.576;10.990;2023-07-20T15:47:00;26.70;39.40
3330;DHT22;1677;49.576;10.990;2023-07-20T15:49:26;26.60;38.80
3330;DHT22;1677;49.576;10.990;2023-07-20T15:51:53;26.50;39.50